Terminal Aerodrome Forecast
Issued by NWS

Home | Current Version | Previous Version | Text Only | Print | Product List | Glossary On
Versions: 1 2 3 4 5 6 7 8 9 10 11 12 13 14 15 16 17 18 19
819
FTUS43 KGRR 221140
TAFAZO
TAF
KAZO 221140Z 2212/2312 19010KT P6SM BKN150
     FM221300 22012G20KT P6SM VCTS SCT040CB BKN120
     FM221700 22012G20KT P6SM SCT070 BKN150
     FM230500 21013KT 5SM -SHRA BR VCTS OVC015CB=

USA.gov is the U.S. government's official web portal to all federal, state and local government web resources and services.